sensor_id;sensor_type;location;lat;lon;timestamp;P1;P2;P0
69349;PMS5003;64554;43.452;4.934;2023-03-03T00:01:00;70.50;56.00;32.50
69349;PMS5003;64554;43.452;4.934;2023-03-03T00:03:29;70.00;55.00;31.80
69349;PMS5003;64554;43.452;4.934;2023-03-03T00:05:56;71.75;57.75;32.25
69349;PMS5003;64554;43.452;4.934;2023-03-03T00:08:24;69.75;55.75;32.00
69349;PMS5003;64554;43.452;4.934;2023-03-03T00:10:51;69.00;54.50;32.00
69349;PMS5003;64554;43.452;4.934;2023-03-03T00:13:22;70.00;54.00;32.00
69349;PMS5003;64554;43.452;4.934;2023-03-03T00:15:49;69.25;55.50;34.00
69349;PMS5003;64554;43.452;4.934;2023-03-03T00:18:20;66.75;52.75;31.00
69349;PMS5003;64554;43.452;4.934;2023-03-03T00:20:54;72.20;55.40;32.80
69349;PMS5003;64554;43.452;4.934;2023-03-03T00:23:35;71.75;56.50;33.50
69349;PMS5003;64554;43.452;4.934;2023-03-03T00:26:04;67.50;54.00;32.00
69349;PMS5003;64554;43.452;4.934;2023-03-03T00:28:44;68.25;54.25;33.50
69349;PMS5003;64554;43.452;4.934;2023-03-03T00:31:17;67.50;54.75;32.00
69349;PMS5003;64554;43.452;4.934;2023-03-03T00:33:46;69.00;54.50;31.50
69349;PMS5003;64554;43.452;4.934;2023-03-03T00:38:40;70.40;54.40;31.60
69349;PMS5003;64554;43.452;4.934;2023-03-03T00:41:18;64.40;51.80;30.20
69349;PMS5003;64554;43.452;4.934;2023-03-03T00:43:47;66.00;52.25;31.00
69349;PMS5003;64554;43.452;4.934;2023-03-03T00:46:18;66.00;53.00;31.40
69349;PMS5003;64554;43.452;4.934;2023-03-03T00:48:45;67.80;53.40;31.60
69349;PMS5003;64554;43.452;4.934;2023-03-03T00:53:48;66.50;52.00;31.00
69349;PMS5003;64554;43.452;4.934;2023-03-03T00:56:15;68.00;52.00;32.00
69349;PMS5003;64554;43.452;4.934;2023-03-03T00:58:42;69.00;54.00;30.50
69349;PMS5003;64554;43.452;4.934;2023-03-03T01:01:14;67.80;53.60;30.80
69349;PMS5003;64554;43.452;4.934;2023-03-03T01:03:41;68.00;53.00;31.75
69349;PMS5003;64554;43.452;4.934;2023-03-03T01:06:08;64.50;50.50;30.75
69349;PMS5003;64554;43.452;4.934;2023-03-03T01:08:35;66.50;53.00;31.00
69349;PMS5003;64554;43.452;4.934;2023-03-03T01:11:03;67.50;52.00;29.00
69349;PMS5003;64554;43.452;4.934;2023-03-03T01:13:31;66.00;55.00;30.00
69349;PMS5003;64554;43.452;4.934;2023-03-03T01:16:02;70.00;53.00;32.00
69349;PMS5003;64554;43.452;4.934;2023-03-03T01:18:29;68.80;54.80;31.20
69349;PMS5003;64554;43.452;4.934;2023-03-03T01:20:56;67.00;52.80;30.80
69349;PMS5003;64554;43.452;4.934;2023-03-03T01:23:23;65.40;54.00;30.00
69349;PMS5003;64554;43.452;4.934;2023-03-03T01:25:51;66.25;54.25;32.00
69349;PMS5003;64554;43.452;4.934;2023-03-03T01:28:18;67.50;53.75;31.00
69349;PMS5003;64554;43.452;4.934;2023-03-03T01:30:45;68.60;54.60;30.20
69349;PMS5003;64554;43.452;4.934;2023-03-03T01:33:12;70.40;54.40;31.40
69349;PMS5003;64554;43.452;4.934;2023-03-03T01:35:42;68.25;54.00;31.25
69349;PMS5003;64554;43.452;4.934;2023-03-03T01:38:09;67.00;53.00;31.75
69349;PMS5003;64554;43.452;4.934;2023-03-03T01:40:35;66.80;53.20;31.00
69349;PMS5003;64554;43.452;4.934;2023-03-03T01:43:02;69.00;55.00;32.50
69349;PMS5003;64554;43.452;4.934;2023-03-03T01:45:32;71.75;55.50;32.00
69349;PMS5003;64554;43.452;4.934;2023-03-03T01:48:09;69.00;54.50;32.00
69349;PMS5003;64554;43.452;4.934;2023-03-03T01:55:54;67.25;53.25;31.00
69349;PMS5003;64554;43.452;4.934;2023-03-03T01:58:23;63.20;49.00;29.20
69349;PMS5003;64554;43.452;4.934;2023-03-03T02:01:01;69.60;55.40;30.00
69349;PMS5003;64554;43.452;4.934;2023-03-03T02:03:29;64.00;50.40;30.00
69349;PMS5003;64554;43.452;4.934;2023-03-03T02:05:57;65.20;53.00;32.00
69349;PMS5003;64554;43.452;4.934;2023-03-03T02:08:27;63.50;52.00;29.75
69349;PMS5003;64554;43.452;4.934;2023-03-03T02:10:56;69.50;53.75;30.00
69349;PMS5003;64554;43.452;4.934;2023-03-03T02:13:23;65.40;53.00;31.60
69349;PMS5003;64554;43.452;4.934;2023-03-03T02:15:49;66.00;53.75;29.25
69349;PMS5003;64554;43.452;4.934;2023-03-03T02:18:17;68.50;54.25;32.75
69349;PMS5003;64554;43.452;4.934;2023-03-03T02:20:48;67.25;54.75;32.25
69349;PMS5003;64554;43.452;4.934;2023-03-03T02:26:09;71.50;55.50;31.00
69349;PMS5003;64554;43.452;4.934;2023-03-03T02:28:38;70.50;54.50;31.25
69349;PMS5003;64554;43.452;4.934;2023-03-03T02:31:08;62.75;50.50;31.00
69349;PMS5003;64554;43.452;4.934;2023-03-03T02:33:39;67.40;53.60;31.00
69349;PMS5003;64554;43.452;4.934;2023-03-03T02:36:06;67.00;54.00;30.80
69349;PMS5003;64554;43.452;4.934;2023-03-03T02:38:39;65.25;53.25;30.50
69349;PMS5003;64554;43.452;4.934;2023-03-03T02:43:56;65.40;52.40;29.00
69349;PMS5003;64554;43.452;4.934;2023-03-03T02:46:24;69.00;53.00;32.00
69349;PMS5003;64554;43.452;4.934;2023-03-03T02:48:51;66.75;52.75;32.00
69349;PMS5003;64554;43.452;4.934;2023-03-03T02:51:18;67.00;53.60;29.00
69349;PMS5003;64554;43.452;4.934;2023-03-03T02:53:45;61.60;50.00;31.00
69349;PMS5003;64554;43.452;4.934;2023-03-03T02:56:12;66.25;53.50;32.00
69349;PMS5003;64554;43.452;4.934;2023-03-03T02:58:39;66.20;52.60;30.80
69349;PMS5003;64554;43.452;4.934;2023-03-03T03:01:06;67.50;52.25;30.75
69349;PMS5003;64554;43.452;4.934;2023-03-03T03:03:33;66.25;52.25;30.00
69349;PMS5003;64554;43.452;4.934;2023-03-03T03:06:00;66.00;53.50;30.50
69349;PMS5003;64554;43.452;4.934;2023-03-03T03:08:27;64.00;53.00;31.00
69349;PMS5003;64554;43.452;4.934;2023-03-03T03:10:54;61.75;50.50;29.75
69349;PMS5003;64554;43.452;4.934;2023-03-03T03:13:23;70.20;55.40;31.20
69349;PMS5003;64554;43.452;4.934;2023-03-03T03:15:50;64.20;51.20;30.00
69349;PMS5003;64554;43.452;4.934;2023-03-03T03:18:16;65.25;52.25;31.00
69349;PMS5003;64554;43.452;4.934;2023-03-03T03:20:43;71.75;55.25;31.50
69349;PMS5003;64554;43.452;4.934;2023-03-03T03:23:13;67.25;51.50;29.75
69349;PMS5003;64554;43.452;4.934;2023-03-03T03:25:40;65.80;53.00;33.00
69349;PMS5003;64554;43.452;4.934;2023-03-03T03:28:11;67.00;52.50;31.00
69349;PMS5003;64554;43.452;4.934;2023-03-03T03:30:39;63.00;50.50;30.25
69349;PMS5003;64554;43.452;4.934;2023-03-03T03:33:06;68.00;53.00;30.25
69349;PMS5003;64554;43.452;4.934;2023-03-03T03:35:33;67.00;54.00;31.00
69349;PMS5003;64554;43.452;4.934;2023-03-03T03:38:00;66.75;53.00;31.00
69349;PMS5003;64554;43.452;4.934;2023-03-03T03:40:27;66.20;55.60;31.20
69349;PMS5003;64554;43.452;4.934;2023-03-03T03:42:54;68.25;53.50;31.00
69349;PMS5003;64554;43.452;4.934;2023-03-03T03:45:21;68.75;55.50;33.00
69349;PMS5003;64554;43.452;4.934;2023-03-03T03:47:48;67.25;54.00;32.00
69349;PMS5003;64554;43.452;4.934;2023-03-03T03:50:15;66.00;53.00;30.00
69349;PMS5003;64554;43.452;4.934;2023-03-03T03:52:41;65.20;51.20;31.20
69349;PMS5003;64554;43.452;4.934;2023-03-03T03:55:09;65.40;51.40;31.40
69349;PMS5003;64554;43.452;4.934;2023-03-03T03:57:36;68.50;53.00;30.50
69349;PMS5003;64554;43.452;4.934;2023-03-03T04:00:04;67.80;56.20;33.00
69349;PMS5003;64554;43.452;4.934;2023-03-03T04:02:31;67.25;52.50;31.00
69349;PMS5003;64554;43.452;4.934;2023-03-03T04:04:58;67.20;51.60;31.00
69349;PMS5003;64554;43.452;4.934;2023-03-03T04:07:25;66.20;53.20;30.00
69349;PMS5003;64554;43.452;4.934;2023-03-03T04:09:52;67.50;54.00;32.00
69349;PMS5003;64554;43.452;4.934;2023-03-03T04:12:18;69.00;54.80;31.80
69349;PMS5003;64554;43.452;4.934;2023-03-03T04:14:45;68.25;54.50;32.50
69349;PMS5003;64554;43.452;4.934;2023-03-03T04:17:15;69.50;54.50;32.00
69349;PMS5003;64554;43.452;4.934;2023-03-03T04:19:42;68.00;54.50;32.00
69349;PMS5003;64554;43.452;4.934;2023-03-03T04:22:10;66.75;54.50;32.00
69349;PMS5003;64554;43.452;4.934;2023-03-03T04:24:40;71.25;55.00;31.00
69349;PMS5003;64554;43.452;4.934;2023-03-03T04:27:07;63.20;51.00;29.60
69349;PMS5003;64554;43.452;4.934;2023-03-03T04:29:37;68.00;52.00;30.25
69349;PMS5003;64554;43.452;4.934;2023-03-03T04:32:04;70.75;55.75;30.00
69349;PMS5003;64554;43.452;4.934;2023-03-03T04:34:30;66.25;54.00;31.00
69349;PMS5003;64554;43.452;4.934;2023-03-03T04:36:57;67.20;53.40;30.00
69349;PMS5003;64554;43.452;4.934;2023-03-03T04:39:24;68.75;54.00;29.75
69349;PMS5003;64554;43.452;4.934;2023-03-03T04:41:51;68.50;54.25;30.25
69349;PMS5003;64554;43.452;4.934;2023-03-03T04:44:18;68.50;55.00;31.00
69349;PMS5003;64554;43.452;4.934;2023-03-03T04:46:44;69.25;55.00;31.25
69349;PMS5003;64554;43.452;4.934;2023-03-03T04:49:11;69.00;54.25;31.00
69349;PMS5003;64554;43.452;4.934;2023-03-03T04:51:37;67.80;55.20;31.00
69349;PMS5003;64554;43.452;4.934;2023-03-03T04:54:04;68.40;55.00;32.20
69349;PMS5003;64554;43.452;4.934;2023-03-03T04:56:31;66.25;53.25;31.50
69349;PMS5003;64554;43.452;4.934;2023-03-03T04:58:58;68.75;54.00;33.00
69349;PMS5003;64554;43.452;4.934;2023-03-03T05:01:24;75.33;58.00;33.00
69349;PMS5003;64554;43.452;4.934;2023-03-03T05:03:51;72.75;57.25;33.00
69349;PMS5003;64554;43.452;4.934;2023-03-03T05:06:18;72.25;56.50;33.00
69349;PMS5003;64554;43.452;4.934;2023-03-03T05:08:44;66.20;53.20;32.00
69349;PMS5003;64554;43.452;4.934;2023-03-03T05:11:12;72.20;57.40;34.00
69349;PMS5003;64554;43.452;4.934;2023-03-03T05:13:39;67.00;53.75;30.25
69349;PMS5003;64554;43.452;4.934;2023-03-03T05:16:06;74.20;59.40;36.00
69349;PMS5003;64554;43.452;4.934;2023-03-03T05:18:33;76.75;63.00;36.75
69349;PMS5003;64554;43.452;4.934;2023-03-03T05:21:00;74.40;62.80;37.00
69349;PMS5003;64554;43.452;4.934;2023-03-03T05:23:26;75.60;61.60;33.80
69349;PMS5003;64554;43.452;4.934;2023-03-03T05:25:53;74.00;59.00;34.40
69349;PMS5003;64554;43.452;4.934;2023-03-03T05:28:20;76.00;60.00;33.00
69349;PMS5003;64554;43.452;4.934;2023-03-03T05:30:47;74.50;60.75;35.00
69349;PMS5003;64554;43.452;4.934;2023-03-03T05:33:14;76.50;63.50;37.00
69349;PMS5003;64554;43.452;4.934;2023-03-03T05:35:42;79.50;66.25;35.75
69349;PMS5003;64554;43.452;4.934;2023-03-03T05:38:09;78.20;65.00;38.00
69349;PMS5003;64554;43.452;4.934;2023-03-03T05:40:37;83.00;72.50;39.25
69349;PMS5003;64554;43.452;4.934;2023-03-03T05:43:04;88.50;82.00;42.00
69349;PMS5003;64554;43.452;4.934;2023-03-03T05:45:31;87.50;79.50;42.75
69349;PMS5003;64554;43.452;4.934;2023-03-03T05:47:59;76.75;62.75;36.00
69349;PMS5003;64554;43.452;4.934;2023-03-03T05:50:26;72.00;56.25;34.50
69349;PMS5003;64554;43.452;4.934;2023-03-03T05:52:53;71.50;57.25;34.25
69349;PMS5003;64554;43.452;4.934;2023-03-03T05:55:20;75.80;59.60;33.20
69349;PMS5003;64554;43.452;4.934;2023-03-03T05:57:46;69.75;55.00;31.50
69349;PMS5003;64554;43.452;4.934;2023-03-03T06:00:14;74.25;60.50;34.00
69349;PMS5003;64554;43.452;4.934;2023-03-03T06:02:41;69.00;55.50;33.00
69349;PMS5003;64554;43.452;4.934;2023-03-03T06:05:08;77.00;62.25;36.75
69349;PMS5003;64554;43.452;4.934;2023-03-03T06:07:35;79.50;65.25;36.00
69349;PMS5003;64554;43.452;4.934;2023-03-03T06:10:02;68.00;54.00;31.50
69349;PMS5003;64554;43.452;4.934;2023-03-03T06:12:29;72.00;56.75;33.00
69349;PMS5003;64554;43.452;4.934;2023-03-03T06:14:56;71.50;55.50;32.75
69349;PMS5003;64554;43.452;4.934;2023-03-03T06:17:23;77.00;62.25;36.00
69349;PMS5003;64554;43.452;4.934;2023-03-03T06:19:51;82.80;69.80;40.60
69349;PMS5003;64554;43.452;4.934;2023-03-03T06:22:17;83.40;73.60;41.00
69349;PMS5003;64554;43.452;4.934;2023-03-03T06:24:44;95.25;84.50;44.00
69349;PMS5003;64554;43.452;4.934;2023-03-03T06:27:11;73.00;57.50;36.00
69349;PMS5003;64554;43.452;4.934;2023-03-03T06:29:38;72.60;58.20;31.00
69349;PMS5003;64554;43.452;4.934;2023-03-03T06:32:08;68.40;54.40;33.00
69349;PMS5003;64554;43.452;4.934;2023-03-03T06:34:34;68.75;54.75;31.50
69349;PMS5003;64554;43.452;4.934;2023-03-03T06:37:01;72.60;58.80;35.00
69349;PMS5003;64554;43.452;4.934;2023-03-03T06:39:28;78.75;67.25;39.75
69349;PMS5003;64554;43.452;4.934;2023-03-03T06:41:55;88.80;80.40;41.20
69349;PMS5003;64554;43.452;4.934;2023-03-03T06:44:21;89.00;80.00;43.33
69349;PMS5003;64554;43.452;4.934;2023-03-03T06:46:48;81.75;72.75;37.50
69349;PMS5003;64554;43.452;4.934;2023-03-03T06:49:16;74.20;60.00;35.40
69349;PMS5003;64554;43.452;4.934;2023-03-03T06:51:46;71.60;59.00;33.20
69349;PMS5003;64554;43.452;4.934;2023-03-03T06:54:20;72.50;57.75;32.75
69349;PMS5003;64554;43.452;4.934;2023-03-03T06:56:53;71.50;59.00;34.00
69349;PMS5003;64554;43.452;4.934;2023-03-03T06:59:24;71.50;57.00;32.75
69349;PMS5003;64554;43.452;4.934;2023-03-03T07:01:52;69.00;54.00;34.00
69349;PMS5003;64554;43.452;4.934;2023-03-03T07:04:26;68.67;56.33;33.00
69349;PMS5003;64554;43.452;4.934;2023-03-03T07:06:57;67.75;54.50;32.50
69349;PMS5003;64554;43.452;4.934;2023-03-03T07:09:26;65.00;52.00;31.00
69349;PMS5003;64554;43.452;4.934;2023-03-03T07:11:56;67.00;53.40;31.00
69349;PMS5003;64554;43.452;4.934;2023-03-03T07:14:25;65.80;52.00;31.00
69349;PMS5003;64554;43.452;4.934;2023-03-03T07:16:55;65.75;51.50;30.50
69349;PMS5003;64554;43.452;4.934;2023-03-03T07:19:27;65.00;51.40;30.60
69349;PMS5003;64554;43.452;4.934;2023-03-03T07:21:56;69.00;53.00;31.50
69349;PMS5003;64554;43.452;4.934;2023-03-03T07:24:26;73.00;60.75;34.00
69349;PMS5003;64554;43.452;4.934;2023-03-03T07:26:55;67.60;52.80;30.40
69349;PMS5003;64554;43.452;4.934;2023-03-03T07:29:25;66.75;54.50;31.50
69349;PMS5003;64554;43.452;4.934;2023-03-03T07:31:56;62.50;50.00;30.00
69349;PMS5003;64554;43.452;4.934;2023-03-03T07:34:26;62.20;48.00;29.00
69349;PMS5003;64554;43.452;4.934;2023-03-03T07:36:58;61.50;50.25;29.25
69349;PMS5003;64554;43.452;4.934;2023-03-03T07:39:33;61.60;49.80;28.60
69349;PMS5003;64554;43.452;4.934;2023-03-03T07:44:35;60.75;48.50;29.00
69349;PMS5003;64554;43.452;4.934;2023-03-03T07:50:14;58.67;47.67;29.67
69349;PMS5003;64554;43.452;4.934;2023-03-03T07:52:48;60.50;48.25;28.50
69349;PMS5003;64554;43.452;4.934;2023-03-03T07:55:29;57.60;46.60;28.00
69349;PMS5003;64554;43.452;4.934;2023-03-03T07:57:57;55.00;46.00;28.00
69349;PMS5003;64554;43.452;4.934;2023-03-03T08:02:57;58.75;48.50;28.75
69349;PMS5003;64554;43.452;4.934;2023-03-03T08:13:15;57.50;47.00;27.00
69349;PMS5003;64554;43.452;4.934;2023-03-03T08:15:42;60.60;48.80;27.60
69349;PMS5003;64554;43.452;4.934;2023-03-03T08:18:15;57.00;46.40;27.40
69349;PMS5003;64554;43.452;4.934;2023-03-03T08:20:44;58.75;46.00;27.00
69349;PMS5003;64554;43.452;4.934;2023-03-03T08:23:11;55.60;46.00;27.40
69349;PMS5003;64554;43.452;4.934;2023-03-03T08:25:38;54.75;45.00;27.75
69349;PMS5003;64554;43.452;4.934;2023-03-03T08:28:05;60.25;46.75;28.25
69349;PMS5003;64554;43.452;4.934;2023-03-03T08:30:32;60.20;49.00;28.20
69349;PMS5003;64554;43.452;4.934;2023-03-03T08:32:59;55.50;44.75;28.00
69349;PMS5003;64554;43.452;4.934;2023-03-03T08:35:26;55.75;44.00;27.00
69349;PMS5003;64554;43.452;4.934;2023-03-03T08:37:53;57.25;46.00;27.25
69349;PMS5003;64554;43.452;4.934;2023-03-03T08:40:20;58.00;46.25;27.00
69349;PMS5003;64554;43.452;4.934;2023-03-03T08:42:46;62.00;50.25;29.00
69349;PMS5003;64554;43.452;4.934;2023-03-03T08:45:14;56.00;46.25;27.75
69349;PMS5003;64554;43.452;4.934;2023-03-03T08:47:40;57.00;46.00;28.00
69349;PMS5003;64554;43.452;4.934;2023-03-03T08:50:10;57.40;47.60;28.00
69349;PMS5003;64554;43.452;4.934;2023-03-03T08:52:37;61.25;48.00;28.00
69349;PMS5003;64554;43.452;4.934;2023-03-03T08:55:03;58.20;47.80;28.80
69349;PMS5003;64554;43.452;4.934;2023-03-03T08:57:31;59.50;48.00;27.75
69349;PMS5003;64554;43.452;4.934;2023-03-03T08:59:57;53.75;44.00;27.00
69349;PMS5003;64554;43.452;4.934;2023-03-03T09:02:24;58.75;47.25;27.50
69349;PMS5003;64554;43.452;4.934;2023-03-03T09:04:50;59.20;47.80;26.80
69349;PMS5003;64554;43.452;4.934;2023-03-03T09:07:17;55.60;45.80;27.00
69349;PMS5003;64554;43.452;4.934;2023-03-03T09:09:44;56.75;46.00;28.00
69349;PMS5003;64554;43.452;4.934;2023-03-03T09:12:15;60.60;49.40;30.60
69349;PMS5003;64554;43.452;4.934;2023-03-03T09:14:42;60.80;49.80;30.20
69349;PMS5003;64554;43.452;4.934;2023-03-03T09:17:42;55.40;46.00;27.60
69349;PMS5003;64554;43.452;4.934;2023-03-03T09:20:10;55.40;46.00;27.00
69349;PMS5003;64554;43.452;4.934;2023-03-03T09:22:42;58.00;47.00;26.50
69349;PMS5003;64554;43.452;4.934;2023-03-03T09:27:55;55.75;45.75;28.50
69349;PMS5003;64554;43.452;4.934;2023-03-03T09:30:37;56.25;46.00;27.50
69349;PMS5003;64554;43.452;4.934;2023-03-03T09:33:24;60.00;47.00;28.00
69349;PMS5003;64554;43.452;4.934;2023-03-03T09:43:30;58.75;47.00;28.00
69349;PMS5003;64554;43.452;4.934;2023-03-03T09:46:02;55.00;45.00;27.80
69349;PMS5003;64554;43.452;4.934;2023-03-03T09:51:25;56.25;46.00;28.00
69349;PMS5003;64554;43.452;4.934;2023-03-03T09:53:58;52.20;44.20;27.60
69349;PMS5003;64554;43.452;4.934;2023-03-03T09:56:38;51.50;43.00;26.00
69349;PMS5003;64554;43.452;4.934;2023-03-03T10:01:56;55.00;45.00;29.00
69349;PMS5003;64554;43.452;4.934;2023-03-03T10:04:41;54.60;45.00;28.00
69349;PMS5003;64554;43.452;4.934;2023-03-03T10:09:41;57.80;47.40;30.00
69349;PMS5003;64554;43.452;4.934;2023-03-03T10:14:42;52.25;43.50;27.00
69349;PMS5003;64554;43.452;4.934;2023-03-03T10:25:01;55.60;45.00;27.80
69349;PMS5003;64554;43.452;4.934;2023-03-03T10:30:06;52.60;44.00;26.00
69349;PMS5003;64554;43.452;4.934;2023-03-03T10:32:57;57.60;45.80;27.00
69349;PMS5003;64554;43.452;4.934;2023-03-03T10:38:31;62.33;47.00;27.67
69349;PMS5003;64554;43.452;4.934;2023-03-03T10:48:32;54.00;43.00;26.00
69349;PMS5003;64554;43.452;4.934;2023-03-03T10:53:52;52.60;44.40;28.00
69349;PMS5003;64554;43.452;4.934;2023-03-03T11:06:47;55.00;45.00;27.40
69349;PMS5003;64554;43.452;4.934;2023-03-03T11:11:49;53.00;42.00;26.00
69349;PMS5003;64554;43.452;4.934;2023-03-03T11:14:23;50.50;43.50;26.00
69349;PMS5003;64554;43.452;4.934;2023-03-03T11:33:06;51.00;41.80;24.40
69349;PMS5003;64554;43.452;4.934;2023-03-03T11:43:29;52.25;43.00;24.50
69349;PMS5003;64554;43.452;4.934;2023-03-03T11:46:07;47.75;40.75;23.00
69349;PMS5003;64554;43.452;4.934;2023-03-03T11:48:37;46.00;38.00;24.00
69349;PMS5003;64554;43.452;4.934;2023-03-03T11:51:15;49.00;42.00;25.75
69349;PMS5003;64554;43.452;4.934;2023-03-03T11:53:53;46.40;37.40;24.00
69349;PMS5003;64554;43.452;4.934;2023-03-03T11:56:38;44.60;37.60;22.60
69349;PMS5003;64554;43.452;4.934;2023-03-03T12:02:02;48.00;39.60;23.00
69349;PMS5003;64554;43.452;4.934;2023-03-03T12:04:40;48.00;38.40;23.00
69349;PMS5003;64554;43.452;4.934;2023-03-03T12:07:15;51.40;44.00;25.40
69349;PMS5003;64554;43.452;4.934;2023-03-03T12:10:23;48.00;40.75;23.75
69349;PMS5003;64554;43.452;4.934;2023-03-03T12:12:43;53.60;43.60;26.00
69349;PMS5003;64554;43.452;4.934;2023-03-03T12:15:16;49.00;40.50;25.00
69349;PMS5003;64554;43.452;4.934;2023-03-03T12:22:47;50.50;41.50;24.25
69349;PMS5003;64554;43.452;4.934;2023-03-03T12:25:32;50.00;42.50;25.50
69349;PMS5003;64554;43.452;4.934;2023-03-03T12:30:37;49.25;40.25;25.00
69349;PMS5003;64554;43.452;4.934;2023-03-03T12:38:25;44.67;38.67;23.67
69349;PMS5003;64554;43.452;4.934;2023-03-03T12:41:10;49.40;40.60;24.60
69349;PMS5003;64554;43.452;4.934;2023-03-03T12:43:49;50.60;42.00;25.20
69349;PMS5003;64554;43.452;4.934;2023-03-03T12:49:19;54.00;44.00;26.00
69349;PMS5003;64554;43.452;4.934;2023-03-03T13:04:43;45.60;38.00;23.00
69349;PMS5003;64554;43.452;4.934;2023-03-03T13:10:02;49.80;40.40;23.80
69349;PMS5003;64554;43.452;4.934;2023-03-03T13:19:59;51.75;43.00;25.25
69349;PMS5003;64554;43.452;4.934;2023-03-03T13:27:26;53.25;42.25;24.75
69349;PMS5003;64554;43.452;4.934;2023-03-03T13:35:01;42.60;36.60;23.40
69349;PMS5003;64554;43.452;4.934;2023-03-03T13:37:32;49.00;41.00;23.25
69349;PMS5003;64554;43.452;4.934;2023-03-03T13:42:32;47.75;41.00;24.00
69349;PMS5003;64554;43.452;4.934;2023-03-03T13:50:32;47.60;39.00;25.60
69349;PMS5003;64554;43.452;4.934;2023-03-03T13:58:41;51.25;42.25;24.25
69349;PMS5003;64554;43.452;4.934;2023-03-03T14:01:16;52.00;42.80;24.00
69349;PMS5003;64554;43.452;4.934;2023-03-03T14:03:49;49.25;41.25;23.00
69349;PMS5003;64554;43.452;4.934;2023-03-03T14:06:21;48.25;41.25;24.00
69349;PMS5003;64554;43.452;4.934;2023-03-03T14:11:27;51.00;40.40;24.20
69349;PMS5003;64554;43.452;4.934;2023-03-03T14:16:24;52.00;43.25;25.75
69349;PMS5003;64554;43.452;4.934;2023-03-03T14:19:39;52.50;43.00;26.00
69349;PMS5003;64554;43.452;4.934;2023-03-03T14:21:48;52.00;42.00;25.00
69349;PMS5003;64554;43.452;4.934;2023-03-03T14:24:18;54.25;44.25;26.25
69349;PMS5003;64554;43.452;4.934;2023-03-03T14:26:48;49.75;40.75;25.25
69349;PMS5003;64554;43.452;4.934;2023-03-03T14:29:18;51.00;42.25;24.50
69349;PMS5003;64554;43.452;4.934;2023-03-03T14:31:45;51.20;42.20;25.20
69349;PMS5003;64554;43.452;4.934;2023-03-03T14:36:48;52.00;43.00;26.25
69349;PMS5003;64554;43.452;4.934;2023-03-03T14:39:25;57.00;45.00;26.00
69349;PMS5003;64554;43.452;4.934;2023-03-03T14:41:53;50.00;42.00;26.00
69349;PMS5003;64554;43.452;4.934;2023-03-03T14:44:23;51.60;43.00;25.00
69349;PMS5003;64554;43.452;4.934;2023-03-03T14:49:28;50.80;41.40;24.00
69349;PMS5003;64554;43.452;4.934;2023-03-03T14:52:40;55.00;44.50;27.75
69349;PMS5003;64554;43.452;4.934;2023-03-03T14:54:49;52.25;43.00;24.00
69349;PMS5003;64554;43.452;4.934;2023-03-03T14:57:17;49.40;39.20;26.00
69349;PMS5003;64554;43.452;4.934;2023-03-03T15:02:30;48.25;40.00;25.00
69349;PMS5003;64554;43.452;4.934;2023-03-03T15:05:09;51.50;43.50;25.75
69349;PMS5003;64554;43.452;4.934;2023-03-03T15:07:37;49.50;41.25;24.00
69349;PMS5003;64554;43.452;4.934;2023-03-03T15:10:06;56.00;45.00;26.25
69349;PMS5003;64554;43.452;4.934;2023-03-03T15:12:34;50.00;41.00;24.00
69349;PMS5003;64554;43.452;4.934;2023-03-03T15:17:38;48.75;40.00;23.50
69349;PMS5003;64554;43.452;4.934;2023-03-03T15:25:35;52.60;43.00;25.00
69349;PMS5003;64554;43.452;4.934;2023-03-03T15:28:16;50.00;41.50;24.00
69349;PMS5003;64554;43.452;4.934;2023-03-03T15:30:50;52.50;42.75;24.25
69349;PMS5003;64554;43.452;4.934;2023-03-03T15:33:22;48.00;39.67;24.00
69349;PMS5003;64554;43.452;4.934;2023-03-03T15:36:16;48.50;40.75;26.00
69349;PMS5003;64554;43.452;4.934;2023-03-03T15:41:25;50.60;42.20;24.20
69349;PMS5003;64554;43.452;4.934;2023-03-03T15:43:57;52.60;41.20;26.00
69349;PMS5003;64554;43.452;4.934;2023-03-03T15:51:43;51.67;42.00;25.67
69349;PMS5003;64554;43.452;4.934;2023-03-03T15:54:32;50.50;42.50;27.00
69349;PMS5003;64554;43.452;4.934;2023-03-03T15:57:04;55.50;43.75;27.50
69349;PMS5003;64554;43.452;4.934;2023-03-03T16:02:24;52.00;43.00;27.00
69349;PMS5003;64554;43.452;4.934;2023-03-03T16:05:37;61.00;46.00;27.00
69349;PMS5003;64554;43.452;4.934;2023-03-03T16:07:45;53.25;44.00;26.00
69349;PMS5003;64554;43.452;4.934;2023-03-03T16:10:31;56.25;46.25;27.00
69349;PMS5003;64554;43.452;4.934;2023-03-03T16:13:18;53.60;44.40;26.80
69349;PMS5003;64554;43.452;4.934;2023-03-03T16:31:32;59.50;48.00;29.00
69349;PMS5003;64554;43.452;4.934;2023-03-03T16:39:05;55.00;44.50;26.00
69349;PMS5003;64554;43.452;4.934;2023-03-03T16:44:07;58.00;47.00;27.00
69349;PMS5003;64554;43.452;4.934;2023-03-03T16:46:41;55.25;45.25;28.00
69349;PMS5003;64554;43.452;4.934;2023-03-03T16:49:22;59.50;48.50;28.00
69349;PMS5003;64554;43.452;4.934;2023-03-03T16:52:05;58.00;46.00;28.00
69349;PMS5003;64554;43.452;4.934;2023-03-03T16:59:51;62.00;49.00;30.00
69349;PMS5003;64554;43.452;4.934;2023-03-03T17:04:55;66.00;52.75;31.00
69349;PMS5003;64554;43.452;4.934;2023-03-03T17:15:19;61.00;49.00;30.00
69349;PMS5003;64554;43.452;4.934;2023-03-03T17:17:59;62.75;51.00;29.00
69349;PMS5003;64554;43.452;4.934;2023-03-03T17:20:42;59.25;48.00;29.25
69349;PMS5003;64554;43.452;4.934;2023-03-03T17:46:43;62.00;50.40;30.00
69349;PMS5003;64554;43.452;4.934;2023-03-03T18:05:27;64.00;52.60;32.00
69349;PMS5003;64554;43.452;4.934;2023-03-03T18:18:01;65.75;53.00;32.00
69349;PMS5003;64554;43.452;4.934;2023-03-03T18:20:35;64.20;50.80;29.40
69349;PMS5003;64554;43.452;4.934;2023-03-03T18:23:21;62.50;51.00;31.00
69349;PMS5003;64554;43.452;4.934;2023-03-03T18:25:58;67.00;51.00;30.25
69349;PMS5003;64554;43.452;4.934;2023-03-03T18:29:26;66.20;52.20;31.00
69349;PMS5003;64554;43.452;4.934;2023-03-03T18:31:22;62.25;50.50;31.00
69349;PMS5003;64554;43.452;4.934;2023-03-03T18:34:36;62.00;49.00;29.50
69349;PMS5003;64554;43.452;4.934;2023-03-03T18:36:37;62.50;50.00;29.25
69349;PMS5003;64554;43.452;4.934;2023-03-03T18:39:05;63.00;50.00;30.00
69349;PMS5003;64554;43.452;4.934;2023-03-03T18:41:32;64.25;50.25;30.75
69349;PMS5003;64554;43.452;4.934;2023-03-03T18:44:00;64.00;53.00;31.00
69349;PMS5003;64554;43.452;4.934;2023-03-03T19:04:39;62.80;51.60;31.00
69349;PMS5003;64554;43.452;4.934;2023-03-03T19:07:20;62.60;50.60;30.80
69349;PMS5003;64554;43.452;4.934;2023-03-03T19:09:59;66.00;50.75;32.00
69349;PMS5003;64554;43.452;4.934;2023-03-03T19:12:47;70.50;54.25;33.25
69349;PMS5003;64554;43.452;4.934;2023-03-03T19:18:02;63.50;50.00;31.00
69349;PMS5003;64554;43.452;4.934;2023-03-03T19:20:36;62.50;49.75;30.00
69349;PMS5003;64554;43.452;4.934;2023-03-03T19:23:06;69.00;52.00;31.00
69349;PMS5003;64554;43.452;4.934;2023-03-03T19:25:35;65.00;52.00;31.00